Time;durP1;ratioP1;P1;durP2;ratioP2;P2;SDS_P1;SDS_P2;PMS_P1;PMS_P2;Temp;Humidity;BMP_temperature;BMP_pressure;BME280_temperature;BME280_humidity;BME280_pressure;Samples;Min_cycle;Max_cycle;Signal;HPM_P1;HPM_P2
2021/01/20 00:01:30;;;;;;;14.43;8.77;;;7.10;99.90;;;;;;5067045;28;20296;-62
2021/01/20 00:04:02;;;;;;;14.93;8.90;;;7.00;99.90;;;;;;5068226;28;20208;-63
2021/01/20 00:06:29;;;;;;;12.37;7.83;;;7.00;99.90;;;;;;5063849;28;20261;-63
2021/01/20 00:08:57;;;;;;;14.67;8.40;;;7.00;99.90;;;;;;5062167;28;20251;-63
2021/01/20 00:11:25;;;;;;;10.73;7.43;;;7.10;99.90;;;;;;5079322;28;20716;-63
2021/01/20 00:13:53;;;;;;;16.47;8.57;;;7.10;99.90;;;;;;5053192;28;20598;-63
2021/01/20 00:16:21;;;;;;;12.27;8.20;;;7.10;99.90;;;;;;5043288;28;20270;-63
2021/01/20 00:18:53;;;;;;;16.23;8.40;;;7.10;99.90;;;;;;5070724;28;20683;-63
2021/01/20 00:21:20;;;;;;;15.47;8.03;;;7.10;99.90;;;;;;5071391;28;20697;-63
2021/01/20 00:23:47;;;;;;;11.83;7.03;;;7.10;99.90;;;;;;5063811;28;20208;-63
2021/01/20 00:26:15;;;;;;;14.53;7.57;;;7.10;99.90;;;;;;5064689;28;20692;-63
2021/01/20 00:28:43;;;;;;;15.03;8.63;;;7.10;99.90;;;;;;5066328;28;20208;-63
2021/01/20 00:31:22;;;;;;;13.47;8.33;;;7.10;99.90;;;;;;5062643;28;20278;-63
2021/01/20 00:33:50;;;;;;;14.17;8.50;;;7.10;99.90;;;;;;5046763;28;20247;-63
2021/01/20 00:36:22;;;;;;;15.27;8.20;;;7.20;99.90;;;;;;5050020;28;20621;-63
2021/01/20 00:38:49;;;;;;;16.23;8.17;;;7.20;99.90;;;;;;5069933;28;20269;-63
2021/01/20 00:41:25;;;;;;;13.27;7.90;;;7.20;99.90;;;;;;5048754;28;20678;-63
2021/01/20 00:43:56;;;;;;;13.13;8.13;;;7.20;99.90;;;;;;5041912;28;20225;-63
2021/01/20 00:46:32;;;;;;;13.97;8.10;;;7.20;99.90;;;;;;5061464;28;20213;-64
2021/01/20 00:48:59;;;;;;;15.87;8.47;;;7.20;99.90;;;;;;5069376;28;20257;-63
2021/01/20 00:51:40;;;;;;;16.13;7.67;;;7.20;99.90;;;;;;5066314;28;20217;-64
2021/01/20 00:54:08;;;;;;;11.60;7.50;;;7.20;99.90;;;;;;5047364;28;20229;-63
2021/01/20 00:56:41;;;;;;;14.70;8.17;;;7.20;99.90;;;;;;5033539;28;20324;-63
2021/01/20 00:59:08;;;;;;;16.53;8.57;;;7.20;99.90;;;;;;5050356;28;20545;-63
2021/01/20 01:01:42;;;;;;;13.63;7.77;;;7.30;99.90;;;;;;5041068;28;20224;-63
2021/01/20 01:04:12;;;;;;;11.60;7.53;;;7.20;99.90;;;;;;5058362;28;20227;-63
2021/01/20 01:06:40;;;;;;;12.47;8.00;;;7.20;99.90;;;;;;5047648;28;20204;-63
2021/01/20 01:09:14;;;;;;;15.50;8.10;;;7.20;99.90;;;;;;5046186;28;20262;-63
2021/01/20 01:11:41;;;;;;;14.07;7.80;;;7.20;99.90;;;;;;5047291;28;20266;-63
2021/01/20 01:14:09;;;;;;;11.53;7.40;;;7.10;99.90;;;;;;5042285;28;20692;-63
2021/01/20 01:16:38;;;;;;;11.90;7.27;;;7.10;99.90;;;;;;5043669;28;20593;-64
2021/01/20 01:19:06;;;;;;;10.20;7.20;;;7.10;99.90;;;;;;5050514;28;20259;-63
2021/01/20 01:21:34;;;;;;;10.37;6.83;;;7.10;99.90;;;;;;5050364;28;20221;-63
2021/01/20 01:24:03;;;;;;;10.27;7.10;;;7.10;99.90;;;;;;5047784;28;20239;-64
2021/01/20 01:27:01;;;;;;;9.93;7.47;;;7.10;99.90;;;;;;5042904;28;20208;-63
2021/01/20 01:29:28;;;;;;;11.63;6.77;;;7.20;99.90;;;;;;5040999;28;20267;-63
2021/01/20 01:31:59;;;;;;;9.43;7.23;;;7.20;99.90;;;;;;5037315;28;20514;-63
2021/01/20 01:34:32;;;;;;;10.83;8.00;;;7.20;99.90;;;;;;5044689;28;20728;-63
2021/01/20 01:36:59;;;;;;;9.70;7.20;;;7.20;99.90;;;;;;5021752;28;20307;-63
2021/01/20 01:39:33;;;;;;;9.10;7.30;;;7.10;99.90;;;;;;5045920;28;20212;-64
2021/01/20 01:42:01;;;;;;;10.47;7.43;;;7.10;99.90;;;;;;5040848;28;20209;-64
2021/01/20 01:44:28;;;;;;;10.50;7.53;;;7.20;99.90;;;;;;5051256;28;20209;-64
2021/01/20 01:46:56;;;;;;;11.73;7.27;;;7.20;99.90;;;;;;5048243;28;20255;-63
2021/01/20 01:49:24;;;;;;;13.07;7.40;;;7.10;99.90;;;;;;5043579;28;20224;-63
2021/01/20 01:51:54;;;;;;;12.20;7.17;;;7.20;99.90;;;;;;5040375;28;20259;-63
2021/01/20 01:54:24;;;;;;;13.03;7.00;;;7.20;99.90;;;;;;5063854;28;20239;-63
2021/01/20 01:56:53;;;;;;;6.33;5.13;;;7.20;99.90;;;;;;5075605;28;20254;-63
2021/01/20 01:59:25;;;;;;;12.07;6.63;;;7.20;99.90;;;;;;5066200;28;20270;-63
2021/01/20 02:01:52;;;;;;;12.27;7.10;;;7.30;99.90;;;;;;5049849;28;20212;-63
2021/01/20 02:04:20;;;;;;;15.17;7.20;;;7.30;99.90;;;;;;5069381;28;20262;-64
2021/01/20 02:06:51;;;;;;;9.80;6.87;;;7.20;99.90;;;;;;5071062;28;20238;-63
2021/01/20 02:09:19;;;;;;;10.83;6.50;;;7.20;99.90;;;;;;5061321;28;20220;-63
2021/01/20 02:12:21;;;;;;;10.27;6.53;;;7.20;99.90;;;;;;5061492;28;20224;-64
2021/01/20 02:15:01;;;;;;;16.03;6.60;;;7.20;99.90;;;;;;5066765;28;20791;-63
2021/01/20 02:17:34;;;;;;;7.17;6.03;;;7.20;99.90;;;;;;5068617;28;20230;-64
2021/01/20 02:20:44;;;;;;;9.23;6.00;;;7.20;99.90;;;;;;5070574;28;20222;-63
2021/01/20 02:23:18;;;;;;;8.93;6.40;;;7.30;99.90;;;;;;5053853;28;20216;-63
2021/01/20 02:26:18;;;;;;;9.47;5.93;;;7.30;99.90;;;;;;5038223;28;20211;-64
2021/01/20 02:29:04;;;;;;;7.03;5.73;;;7.30;99.90;;;;;;5049041;28;20697;-63
2021/01/20 02:31:32;;;;;;;13.33;6.47;;;7.40;99.90;;;;;;5044077;28;20258;-63
2021/01/20 02:34:24;;;;;;;10.87;5.87;;;7.40;99.90;;;;;;5057174;28;20212;-63
2021/01/20 02:36:52;;;;;;;9.30;6.57;;;7.40;99.90;;;;;;5051061;28;20219;-63
2021/01/20 02:39:20;;;;;;;13.13;6.20;;;7.40;99.90;;;;;;5057539;28;20204;-63
2021/01/20 02:41:50;;;;;;;10.60;6.23;;;7.40;99.90;;;;;;5049800;28;20204;-63
2021/01/20 02:44:18;;;;;;;8.67;5.77;;;7.40;99.90;;;;;;5042950;28;20256;-63
2021/01/20 02:46:46;;;;;;;8.60;6.17;;;7.40;99.90;;;;;;5043608;28;20251;-63
2021/01/20 02:49:15;;;;;;;7.77;5.90;;;7.40;99.90;;;;;;5059625;28;20248;-63
2021/01/20 02:51:48;;;;;;;8.80;5.87;;;7.50;99.90;;;;;;5051541;28;20299;-63
2021/01/20 02:54:18;;;;;;;7.97;5.87;;;7.50;99.90;;;;;;5047289;28;20235;-63
2021/01/20 02:56:54;;;;;;;9.80;6.23;;;7.50;99.90;;;;;;5083778;28;20220;-63
2021/01/20 02:59:22;;;;;;;9.43;6.10;;;7.60;99.90;;;;;;5047773;28;20620;-63
2021/01/20 03:01:54;;;;;;;9.13;6.10;;;7.60;99.90;;;;;;5064393;28;20222;-63
2021/01/20 03:04:23;;;;;;;9.97;6.17;;;7.60;99.90;;;;;;5058836;28;20227;-63
2021/01/20 03:06:54;;;;;;;7.17;6.00;;;7.60;99.90;;;;;;5048671;28;20670;-63
2021/01/20 03:09:22;;;;;;;8.23;5.97;;;7.60;99.90;;;;;;5053164;28;20207;-63
2021/01/20 03:11:50;;;;;;;8.33;5.60;;;7.60;99.90;;;;;;5054345;28;20255;-63
2021/01/20 03:14:21;;;;;;;6.57;5.33;;;7.70;99.90;;;;;;5069199;28;20685;-63
2021/01/20 03:16:48;;;;;;;9.63;6.00;;;7.70;99.90;;;;;;5058717;28;20661;-63
2021/01/20 03:19:19;;;;;;;8.37;5.53;;;7.70;99.90;;;;;;5062426;28;20682;-63
2021/01/20 03:21:47;;;;;;;5.87;5.27;;;7.80;99.90;;;;;;5062224;28;20269;-64
2021/01/20 03:24:14;;;;;;;9.47;5.10;;;7.80;99.90;;;;;;5068127;28;20290;-63
2021/01/20 03:26:42;;;;;;;6.00;5.13;;;7.80;99.90;;;;;;5070081;28;20217;-63
2021/01/20 03:29:12;;;;;;;5.43;4.70;;;7.90;99.90;;;;;;5066407;28;20697;-63
2021/01/20 03:31:39;;;;;;;5.27;4.67;;;7.90;99.90;;;;;;5059206;28;20258;-64
2021/01/20 03:34:07;;;;;;;11.83;5.00;;;8.00;99.90;;;;;;5067499;28;20224;-64
2021/01/20 03:37:01;;;;;;;6.17;4.60;;;8.00;99.90;;;;;;5047540;28;20277;-63
2021/01/20 03:39:31;;;;;;;5.97;4.70;;;8.00;99.90;;;;;;5071736;28;20221;-64
2021/01/20 03:41:59;;;;;;;6.53;4.63;;;8.00;99.90;;;;;;5054316;28;20292;-63
2021/01/20 03:44:29;;;;;;;5.43;4.30;;;8.00;99.90;;;;;;5070298;28;20628;-64
2021/01/20 03:46:59;;;;;;;5.33;4.40;;;8.10;99.90;;;;;;5065347;28;20527;-63
2021/01/20 03:49:27;;;;;;;4.60;4.27;;;8.10;99.90;;;;;;5075127;28;20235;-63
2021/01/20 03:51:55;;;;;;;5.20;4.77;;;8.10;99.90;;;;;;5074272;28;20212;-63
2021/01/20 03:54:31;;;;;;;7.37;4.47;;;8.10;99.90;;;;;;5046740;28;20555;-63
2021/01/20 03:57:01;;;;;;;6.57;4.23;;;8.10;99.90;;;;;;5062473;28;20305;-63
2021/01/20 03:59:36;;;;;;;6.70;4.20;;;8.20;99.90;;;;;;5066713;28;20207;-63
2021/01/20 04:02:11;;;;;;;5.10;4.10;;;8.20;99.90;;;;;;5065589;28;20222;-63
2021/01/20 04:04:42;;;;;;;4.10;3.70;;;8.20;99.90;;;;;;5070706;28;20216;-63
2021/01/20 04:07:19;;;;;;;4.03;3.70;;;8.20;99.90;;;;;;5063679;28;20547;-64
2021/01/20 04:09:48;;;;;;;6.70;4.13;;;8.20;99.90;;;;;;5062714;28;20289;-63
2021/01/20 04:12:15;;;;;;;5.83;3.90;;;8.20;99.90;;;;;;5073461;28;20697;-63
2021/01/20 04:14:46;;;;;;;4.50;3.80;;;8.30;99.90;;;;;;5050272;28;20679;-64
2021/01/20 04:17:16;;;;;;;3.90;3.60;;;8.30;99.90;;;;;;5064046;28;20251;-63
2021/01/20 04:19:44;;;;;;;4.23;3.83;;;8.30;99.90;;;;;;5066916;28;20299;-63
2021/01/20 04:22:11;;;;;;;5.83;3.90;;;8.20;99.90;;;;;;5078474;28;20288;-63
2021/01/20 04:24:41;;;;;;;3.80;3.53;;;8.20;99.90;;;;;;5062620;28;20681;-63
2021/01/20 04:27:16;;;;;;;3.70;3.40;;;8.20;99.90;;;;;;5044661;28;20215;-63
2021/01/20 04:29:44;;;;;;;3.63;3.33;;;8.20;99.90;;;;;;5074740;28;20739;-63
2021/01/20 04:32:11;;;;;;;4.37;3.17;;;8.30;99.90;;;;;;5048444;28;20744;-63
2021/01/20 04:34:39;;;;;;;4.73;3.37;;;8.30;99.90;;;;;;5061703;28;20581;-63
2021/01/20 04:37:07;;;;;;;3.20;3.00;;;8.40;99.90;;;;;;5048815;28;20267;-62
2021/01/20 04:39:35;;;;;;;3.73;3.30;;;8.40;99.90;;;;;;5063515;28;20223;-64
2021/01/20 04:42:09;;;;;;;3.47;3.20;;;8.40;99.90;;;;;;5069803;28;20630;-63
2021/01/20 04:44:54;;;;;;;5.47;3.30;;;8.40;99.90;;;;;;5069279;28;20266;-63
2021/01/20 04:47:22;;;;;;;4.13;3.30;;;8.40;99.90;;;;;;5059947;28;20748;-63
2021/01/20 04:49:51;;;;;;;6.27;2.90;;;8.40;99.90;;;;;;5067397;28;20223;-63
2021/01/20 04:52:23;;;;;;;3.27;2.97;;;8.30;99.90;;;;;;5074805;28;20216;-64
2021/01/20 04:54:51;;;;;;;4.10;3.07;;;8.30;99.90;;;;;;5049978;28;20623;-63
2021/01/20 04:57:33;;;;;;;5.90;3.43;;;8.30;99.90;;;;;;5044936;28;20214;-64
2021/01/20 05:00:09;;;;;;;3.00;2.70;;;8.30;99.90;;;;;;5065113;28;20216;-63
2021/01/20 05:02:41;;;;;;;3.77;3.47;;;8.30;99.90;;;;;;5066519;28;20211;-64
2021/01/20 05:05:11;;;;;;;3.70;3.13;;;8.20;99.90;;;;;;5071812;28;20216;-63
2021/01/20 05:07:42;;;;;;;4.13;3.77;;;8.10;99.90;;;;;;5073471;28;20246;-63
2021/01/20 05:10:10;;;;;;;3.93;3.43;;;8.10;99.90;;;;;;5064896;28;20261;-63
2021/01/20 05:12:39;;;;;;;4.63;3.27;;;8.00;99.90;;;;;;5069792;28;20220;-63
2021/01/20 05:15:16;;;;;;;6.33;3.67;;;8.00;99.90;;;;;;5070479;28;20404;-63
2021/01/20 05:17:58;;;;;;;4.37;3.20;;;7.90;99.90;;;;;;5061271;28;20294;-63
2021/01/20 05:20:36;;;;;;;3.73;3.43;;;7.80;99.90;;;;;;5065877;28;20218;-63
2021/01/20 05:23:05;;;;;;;6.23;3.33;;;7.80;99.90;;;;;;5080557;28;20224;-63
2021/01/20 05:25:33;;;;;;;5.83;3.20;;;7.70;99.90;;;;;;5064154;28;20239;-63
2021/01/20 05:28:24;;;;;;;5.17;3.63;;;7.60;99.90;;;;;;5054555;28;20633;-64
2021/01/20 05:31:04;;;;;;;5.33;3.57;;;7.50;99.90;;;;;;5065240;28;20212;-63
2021/01/20 05:33:36;;;;;;;4.50;3.20;;;7.40;99.90;;;;;;5057372;28;20302;-63
2021/01/20 05:36:08;;;;;;;3.93;3.50;;;7.40;99.90;;;;;;5067698;28;20303;-63
2021/01/20 05:38:49;;;;;;;4.00;3.60;;;7.30;99.90;;;;;;5071032;28;20298;-63
2021/01/20 05:41:21;;;;;;;3.67;3.47;;;7.30;99.90;;;;;;5057140;28;20220;-63
2021/01/20 05:43:50;;;;;;;4.13;3.73;;;7.20;99.90;;;;;;5058802;28;20240;-63
2021/01/20 05:46:34;;;;;;;4.57;3.80;;;7.20;99.90;;;;;;5053626;28;20690;-63
2021/01/20 05:49:07;;;;;;;3.93;3.50;;;7.20;99.90;;;;;;5063930;28;20212;-63
2021/01/20 05:51:45;;;;;;;4.00;3.70;;;7.20;99.90;;;;;;5060976;28;20690;-63
2021/01/20 05:54:13;;;;;;;4.50;3.30;;;7.10;99.90;;;;;;5048279;28;20563;-63
2021/01/20 05:56:41;;;;;;;3.97;3.47;;;7.10;99.90;;;;;;5041621;28;20271;-63
2021/01/20 05:59:10;;;;;;;3.63;3.33;;;7.10;99.90;;;;;;5040291;28;20267;-63
2021/01/20 06:01:38;;;;;;;4.07;3.67;;;7.10;99.90;;;;;;5042118;28;20312;-63
2021/01/20 06:04:10;;;;;;;6.20;3.20;;;7.10;99.90;;;;;;5049984;28;20226;-63
2021/01/20 06:06:38;;;;;;;3.73;3.43;;;7.10;99.90;;;;;;5042709;28;20217;-63
2021/01/20 06:09:09;;;;;;;4.13;3.73;;;7.20;99.90;;;;;;5050583;28;20208;-64
2021/01/20 06:11:37;;;;;;;3.83;3.53;;;7.20;99.90;;;;;;5037857;28;20278;-63
2021/01/20 06:14:04;;;;;;;4.63;3.63;;;7.20;99.90;;;;;;5029964;28;20214;-65
2021/01/20 06:16:36;;;;;;;4.83;3.63;;;7.20;99.90;;;;;;5039017;28;20221;-63
2021/01/20 06:19:09;;;;;;;3.67;3.37;;;7.10;99.90;;;;;;5034261;28;20213;-63
2021/01/20 06:21:37;;;;;;;5.87;3.83;;;7.10;99.90;;;;;;5029438;28;20217;-62
2021/01/20 06:24:09;;;;;;;5.10;3.77;;;7.10;99.90;;;;;;5047035;28;20770;-63
2021/01/20 06:26:46;;;;;;;3.60;3.40;;;7.10;99.90;;;;;;5043576;28;20252;-63
2021/01/20 06:29:16;;;;;;;4.27;3.60;;;7.10;99.90;;;;;;5052680;28;20258;-63
2021/01/20 06:31:53;;;;;;;3.57;3.27;;;7.10;99.90;;;;;;5044878;28;20216;-63
2021/01/20 06:34:22;;;;;;;4.13;3.40;;;7.10;99.90;;;;;;5043269;28;20216;-62
2021/01/20 06:36:54;;;;;;;5.00;3.70;;;7.10;99.90;;;;;;5027593;28;20472;-63
2021/01/20 06:39:35;;;;;;;3.87;3.57;;;7.10;99.90;;;;;;5044062;28;20204;-64
2021/01/20 06:42:03;;;;;;;4.00;3.40;;;7.10;99.90;;;;;;5043236;28;20763;-63
2021/01/20 06:44:32;;;;;;;4.77;3.47;;;7.10;99.90;;;;;;5012611;28;20210;-63
2021/01/20 06:47:05;;;;;;;3.13;2.90;;;7.10;99.90;;;;;;5030514;28;20289;-64
2021/01/20 06:49:34;;;;;;;3.73;3.40;;;7.10;99.90;;;;;;5044755;28;20235;-63
2021/01/20 06:52:10;;;;;;;3.70;3.50;;;7.10;99.90;;;;;;5026829;28;20214;-63
2021/01/20 06:54:40;;;;;;;3.87;3.57;;;7.10;99.90;;;;;;5036871;28;20329;-63
2021/01/20 07:01:12;;;;;;;3.93;3.40;;;7.20;99.90;;;;;;5037363;28;20685;-64
2021/01/20 07:03:59;;;;;;;3.60;3.30;;;7.20;99.90;;;;;;5067942;28;20207;-64
2021/01/20 07:06:45;;;;;;;3.27;3.07;;;7.20;99.90;;;;;;5072596;28;20611;-63
2021/01/20 07:10:02;;;;;;;3.67;3.33;;;7.30;99.90;;;;;;5073437;28;20594;-63
2021/01/20 07:12:30;;;;;;;2.63;2.53;;;7.30;99.90;;;;;;5069279;28;20243;-63
2021/01/20 07:15:14;;;;;;;4.37;3.00;;;7.30;99.90;;;;;;5070219;28;20222;-64
2021/01/20 07:17:43;;;;;;;3.33;3.10;;;7.30;99.90;;;;;;5064229;28;20207;-63
2021/01/20 07:20:12;;;;;;;3.23;2.93;;;7.40;99.90;;;;;;5056000;28;20218;-63
2021/01/20 07:22:42;;;;;;;3.63;3.33;;;7.40;99.90;;;;;;5076058;28;20258;-63
2021/01/20 07:25:11;;;;;;;3.10;2.90;;;7.40;99.90;;;;;;5070088;28;20228;-63
2021/01/20 07:30:36;;;;;;;3.80;3.40;;;7.40;99.90;;;;;;5073546;28;20628;-63
2021/01/20 07:34:00;;;;;;;3.70;3.40;;;7.50;99.90;;;;;;5048891;28;20228;-63
2021/01/20 07:36:30;;;;;;;3.40;3.13;;;7.50;99.90;;;;;;5065102;28;20698;-64
2021/01/20 07:38:58;;;;;;;3.83;3.37;;;7.50;99.90;;;;;;5068713;28;20555;-63
2021/01/20 07:41:32;;;;;;;4.03;2.73;;;7.50;99.90;;;;;;5063659;28;20214;-63
2021/01/20 07:44:09;;;;;;;3.40;3.20;;;7.50;99.90;;;;;;5052168;28;20578;-63
2021/01/20 07:46:37;;;;;;;3.30;3.03;;;7.50;99.90;;;;;;5049988;28;20397;-64
2021/01/20 07:49:13;;;;;;;3.50;3.20;;;7.60;99.90;;;;;;5064826;28;20561;-64
2021/01/20 07:51:41;;;;;;;3.10;2.90;;;7.50;99.90;;;;;;5060910;28;20274;-64
2021/01/20 07:54:10;;;;;;;2.90;2.80;;;7.50;99.90;;;;;;5036549;28;20220;-64
2021/01/20 07:56:48;;;;;;;2.97;2.77;;;7.50;99.90;;;;;;5078675;28;20307;-65
2021/01/20 07:59:17;;;;;;;3.20;2.90;;;7.50;99.90;;;;;;5051608;28;20270;-63
2021/01/20 08:01:45;;;;;;;3.10;2.90;;;7.50;99.90;;;;;;5055507;28;20701;-63
2021/01/20 08:04:29;;;;;;;3.20;3.00;;;7.50;99.90;;;;;;5055554;28;20225;-64
2021/01/20 08:06:57;;;;;;;2.77;2.57;;;7.50;99.90;;;;;;5047937;28;20674;-64
2021/01/20 08:09:36;;;;;;;3.40;3.10;;;7.50;99.90;;;;;;5065702;28;20239;-63
2021/01/20 08:12:05;;;;;;;3.33;3.03;;;7.60;99.90;;;;;;5037000;28;20582;-63
2021/01/20 08:14:38;;;;;;;3.40;2.93;;;7.50;99.90;;;;;;5068732;28;20674;-64
2021/01/20 08:17:07;;;;;;;3.40;3.10;;;7.60;99.90;;;;;;5053034;28;20212;-64
2021/01/20 08:19:35;;;;;;;2.90;2.70;;;7.60;99.90;;;;;;5087971;28;20227;-64
2021/01/20 08:22:03;;;;;;;3.60;3.33;;;7.70;99.90;;;;;;5070641;28;20236;-63
2021/01/20 08:24:31;;;;;;;3.33;3.13;;;7.60;99.90;;;;;;5049148;28;20307;-63
2021/01/20 08:27:02;;;;;;;3.43;3.13;;;7.70;99.90;;;;;;5036240;28;20311;-64
2021/01/20 08:29:32;;;;;;;3.47;3.17;;;7.60;99.90;;;;;;5069162;28;20679;-63
2021/01/20 08:32:07;;;;;;;3.20;2.97;;;7.60;99.90;;;;;;5057171;28;20213;-63
2021/01/20 08:34:36;;;;;;;3.63;3.27;;;7.60;99.90;;;;;;5067358;28;20677;-63
2021/01/20 08:37:11;;;;;;;2.90;2.70;;;7.70;99.90;;;;;;5045992;28;20224;-63
2021/01/20 08:39:59;;;;;;;3.57;3.27;;;7.70;99.90;;;;;;5047022;28;20209;-63
2021/01/20 08:42:41;;;;;;;3.10;2.83;;;7.70;99.90;;;;;;5068294;28;20210;-65
2021/01/20 08:45:14;;;;;;;3.63;2.93;;;7.70;99.90;;;;;;5064681;28;20215;-64
2021/01/20 08:48:29;;;;;;;3.73;3.07;;;7.70;99.90;;;;;;5026840;28;20270;-64
2021/01/20 08:50:57;;;;;;;4.47;3.03;;;7.80;99.90;;;;;;5073274;28;20645;-64
2021/01/20 08:53:27;;;;;;;3.00;2.80;;;7.80;99.90;;;;;;5080351;28;20223;-64
2021/01/20 08:55:59;;;;;;;8.20;3.07;;;7.80;99.90;;;;;;5069723;28;20211;-64
2021/01/20 08:58:29;;;;;;;3.13;2.93;;;7.80;99.90;;;;;;5057537;28;20274;-64
2021/01/20 09:01:00;;;;;;;3.30;3.10;;;7.90;99.90;;;;;;5042623;28;20231;-65
2021/01/20 09:03:29;;;;;;;2.80;2.60;;;7.90;99.90;;;;;;5056305;28;20243;-64
2021/01/20 09:05:59;;;;;;;3.20;3.00;;;7.90;99.90;;;;;;5067152;28;20217;-64
2021/01/20 09:08:37;;;;;;;3.13;2.83;;;7.90;99.90;;;;;;5058263;28;20212;-64
2021/01/20 09:11:04;;;;;;;3.47;2.90;;;7.90;99.90;;;;;;5059897;28;20303;-64
2021/01/20 09:13:36;;;;;;;5.47;2.93;;;7.90;99.90;;;;;;5069888;28;20221;-64
2021/01/20 09:16:07;;;;;;;3.00;2.60;;;7.90;99.90;;;;;;5064816;28;20220;-63
2021/01/20 09:18:34;;;;;;;3.03;2.83;;;7.90;99.90;;;;;;5049376;28;20223;-64
2021/01/20 09:21:03;;;;;;;2.90;2.77;;;7.90;99.90;;;;;;5069747;28;20705;-64
2021/01/20 09:23:31;;;;;;;3.00;2.60;;;7.80;99.90;;;;;;5076714;28;20212;-64
2021/01/20 09:26:05;;;;;;;3.40;3.10;;;7.90;99.90;;;;;;5066496;28;20223;-64
2021/01/20 09:28:33;;;;;;;4.20;2.60;;;7.90;99.90;;;;;;5071068;28;20214;-64
2021/01/20 09:31:01;;;;;;;3.30;3.10;;;7.90;99.90;;;;;;5067009;28;20204;-64
2021/01/20 09:33:28;;;;;;;3.23;2.93;;;7.90;99.90;;;;;;5083273;28;20216;-64
2021/01/20 09:36:02;;;;;;;2.97;2.77;;;7.90;99.90;;;;;;5075783;28;20204;-64
2021/01/20 09:38:29;;;;;;;2.80;2.60;;;7.90;99.90;;;;;;5069884;28;20273;-64
2021/01/20 09:40:57;;;;;;;2.77;2.67;;;8.00;99.90;;;;;;5058896;28;20219;-64
2021/01/20 09:43:28;;;;;;;2.70;2.50;;;8.00;99.90;;;;;;5049381;28;20224;-64
2021/01/20 09:45:57;;;;;;;2.63;2.53;;;8.00;99.90;;;;;;5070232;28;20222;-64
2021/01/20 09:48:29;;;;;;;3.80;3.20;;;8.10;99.90;;;;;;5063595;28;20721;-64
2021/01/20 09:51:02;;;;;;;6.37;2.53;;;8.10;99.90;;;;;;5063906;28;20646;-64
2021/01/20 09:53:34;;;;;;;3.23;3.03;;;8.20;99.90;;;;;;5062585;28;20220;-64
2021/01/20 09:56:01;;;;;;;5.07;3.07;;;8.20;99.90;;;;;;5063190;28;20223;-64
2021/01/20 09:58:29;;;;;;;3.00;2.70;;;8.20;99.90;;;;;;5070351;28;20220;-64
2021/01/20 10:00:57;;;;;;;2.73;2.60;;;8.30;99.90;;;;;;5062700;28;20217;-64
2021/01/20 10:03:35;;;;;;;3.20;2.70;;;8.30;99.90;;;;;;5064633;28;20554;-64
2021/01/20 10:06:02;;;;;;;3.20;2.90;;;8.40;99.90;;;;;;5054078;28;20215;-64
2021/01/20 10:08:30;;;;;;;3.70;3.00;;;8.50;99.90;;;;;;5062721;28;20728;-64
2021/01/20 10:11:23;;;;;;;5.90;3.23;;;8.60;99.90;;;;;;5071689;28;20587;-64
2021/01/20 10:13:51;;;;;;;3.17;2.87;;;8.80;99.90;;;;;;5064171;28;20227;-64
2021/01/20 10:16:21;;;;;;;2.50;2.33;;;8.90;99.90;;;;;;5063947;28;20725;-64
2021/01/20 10:18:50;;;;;;;3.27;2.93;;;9.10;99.90;;;;;;5066092;28;20220;-64
2021/01/20 10:21:21;;;;;;;3.00;2.70;;;9.20;99.90;;;;;;5070658;28;20311;-64
2021/01/20 10:23:48;;;;;;;4.30;2.90;;;9.20;99.90;;;;;;5072809;28;20231;-65
2021/01/20 10:26:15;;;;;;;2.23;2.13;;;9.20;99.90;;;;;;5070791;28;20266;-64
2021/01/20 10:28:44;;;;;;;3.60;2.60;;;9.10;99.90;;;;;;5073162;28;20212;-64
2021/01/20 10:31:11;;;;;;;4.10;2.53;;;9.20;99.90;;;;;;5055291;28;20220;-64
2021/01/20 10:33:42;;;;;;;2.87;2.67;;;9.20;99.90;;;;;;5054944;28;20299;-64
2021/01/20 10:36:25;;;;;;;3.00;2.20;;;9.30;99.90;;;;;;5059860;28;20615;-64
2021/01/20 10:38:53;;;;;;;2.30;2.20;;;9.40;99.90;;;;;;5060131;28;20219;-64
2021/01/20 10:41:24;;;;;;;2.70;2.50;;;9.40;99.90;;;;;;5061070;28;20336;-64
2021/01/20 10:43:53;;;;;;;5.50;2.87;;;9.40;99.90;;;;;;5071150;28;20212;-64
2021/01/20 10:46:25;;;;;;;2.40;2.30;;;9.40;99.90;;;;;;5062730;28;20224;-64
2021/01/20 10:48:59;;;;;;;2.50;2.37;;;9.50;99.90;;;;;;5031538;28;20277;-64
2021/01/20 10:51:29;;;;;;;3.40;2.43;;;9.50;99.90;;;;;;5045632;28;20543;-65
2021/01/20 10:53:58;;;;;;;2.63;2.43;;;9.40;99.90;;;;;;5071518;28;20292;-63
2021/01/20 10:56:25;;;;;;;2.70;2.50;;;9.40;99.90;;;;;;5068434;28;20543;-64
2021/01/20 10:58:53;;;;;;;3.97;2.70;;;9.30;99.90;;;;;;5072631;28;20220;-64
2021/01/20 11:01:26;;;;;;;2.10;2.00;;;9.30;99.90;;;;;;5043207;28;20661;-64
2021/01/20 11:03:54;;;;;;;4.37;2.60;;;9.30;99.90;;;;;;5063185;28;20216;-64
2021/01/20 11:06:21;;;;;;;4.30;2.70;;;9.20;99.90;;;;;;5071093;28;20220;-64
2021/01/20 11:08:51;;;;;;;3.60;2.80;;;9.20;99.90;;;;;;5060090;28;20562;-64
2021/01/20 11:11:24;;;;;;;2.73;2.50;;;9.20;99.90;;;;;;5072066;28;20215;-65
2021/01/20 11:13:52;;;;;;;3.07;2.53;;;9.20;99.90;;;;;;5041724;28;20220;-64
2021/01/20 11:16:19;;;;;;;2.57;2.37;;;9.30;99.90;;;;;;5066535;28;20250;-64
2021/01/20 11:18:51;;;;;;;3.77;2.70;;;9.30;99.90;;;;;;5064524;28;20216;-64
2021/01/20 11:21:27;;;;;;;3.80;2.60;;;9.30;99.90;;;;;;5070215;28;20216;-64
2021/01/20 11:24:00;;;;;;;2.53;2.40;;;9.40;99.90;;;;;;5076933;28;20675;-64
2021/01/20 11:26:36;;;;;;;7.10;2.87;;;9.40;99.90;;;;;;5051771;28;20218;-64
2021/01/20 11:32:43;;;;;;;3.77;2.83;;;9.50;99.90;;;;;;5045778;28;20758;-64
2021/01/20 11:35:24;;;;;;;2.70;2.50;;;9.50;99.90;;;;;;5029520;28;20309;-64
2021/01/20 11:38:00;;;;;;;3.30;2.83;;;9.50;99.90;;;;;;5043536;28;20253;-64
2021/01/20 11:40:39;;;;;;;5.20;3.60;;;9.60;99.90;;;;;;5025299;28;20255;-64
2021/01/20 11:43:06;;;;;;;2.83;2.10;;;9.60;99.90;;;;;;5030481;28;21149;-65
2021/01/20 11:45:52;;;;;;;4.07;2.67;;;9.50;99.90;;;;;;5047685;28;20267;-65
2021/01/20 11:48:26;;;;;;;5.70;3.20;;;9.50;99.90;;;;;;5029248;28;20224;-65
2021/01/20 11:50:54;;;;;;;2.67;2.37;;;9.50;99.90;;;;;;5032191;28;20212;-65
2021/01/20 11:53:22;;;;;;;8.40;3.60;;;9.50;99.90;;;;;;5035250;28;20233;-65
2021/01/20 11:55:53;;;;;;;4.67;2.83;;;9.40;99.90;;;;;;5031551;28;20360;-65
2021/01/20 11:58:20;;;;;;;2.77;2.57;;;9.40;99.90;;;;;;5037325;28;20220;-65
2021/01/20 12:00:50;;;;;;;3.30;2.57;;;9.30;99.90;;;;;;5047200;28;20217;-65
2021/01/20 12:03:17;;;;;;;2.70;2.50;;;9.30;99.90;;;;;;5031342;28;20256;-65
2021/01/20 12:05:45;;;;;;;2.40;2.30;;;9.20;99.90;;;;;;5030264;28;20217;-65
2021/01/20 12:08:13;;;;;;;3.00;2.70;;;9.20;99.90;;;;;;5031068;28;20266;-65
2021/01/20 12:10:41;;;;;;;3.70;2.60;;;9.20;99.90;;;;;;5061092;28;20232;-65
2021/01/20 12:13:13;;;;;;;3.13;2.93;;;9.30;99.90;;;;;;5044986;28;20315;-65
2021/01/20 12:16:00;;;;;;;3.47;2.87;;;9.30;99.90;;;;;;5064366;28;20204;-65
2021/01/20 12:18:44;;;;;;;2.63;2.43;;;9.40;99.90;;;;;;5066498;28;20216;-65
2021/01/20 12:21:11;;;;;;;5.07;2.50;;;9.40;99.90;;;;;;5061180;28;20608;-65
2021/01/20 12:23:39;;;;;;;2.70;2.60;;;9.40;99.90;;;;;;5059284;28;20217;-65
2021/01/20 12:26:09;;;;;;;4.00;2.47;;;9.50;99.90;;;;;;5069651;28;20734;-65
2021/01/20 12:28:37;;;;;;;2.57;2.47;;;9.50;99.90;;;;;;5071740;28;20244;-64
2021/01/20 12:31:09;;;;;;;2.63;2.43;;;9.70;99.90;;;;;;5065544;28;20712;-65
2021/01/20 12:33:47;;;;;;;2.63;2.53;;;9.90;99.90;;;;;;5063782;28;20216;-65
2021/01/20 12:36:20;;;;;;;2.70;2.50;;;9.90;99.90;;;;;;5064983;28;20224;-65
2021/01/20 12:38:48;;;;;;;2.77;2.50;;;9.80;99.90;;;;;;5048441;28;20706;-65
2021/01/20 12:41:20;;;;;;;2.73;2.50;;;9.80;99.90;;;;;;5066743;28;20240;-65
2021/01/20 12:43:52;;;;;;;3.10;2.77;;;9.70;99.90;;;;;;5035937;28;20770;-65
2021/01/20 12:46:19;;;;;;;3.00;2.80;;;9.60;99.90;;;;;;5054419;28;20239;-65
2021/01/20 12:49:03;;;;;;;2.90;2.60;;;9.60;99.90;;;;;;5061173;28;20274;-65
2021/01/20 12:55:26;;;;;;;4.53;2.50;;;9.60;99.90;;;;;;5054483;28;20258;-65
2021/01/20 12:57:54;;;;;;;2.90;2.57;;;9.50;99.90;;;;;;5054616;28;20575;-65
2021/01/20 13:00:29;;;;;;;2.73;2.53;;;9.60;99.90;;;;;;5086881;28;20273;-64
2021/01/20 13:03:07;;;;;;;3.43;2.77;;;9.60;99.90;;;;;;5063591;28;20239;-64
2021/01/20 13:05:35;;;;;;;3.00;2.70;;;9.70;99.90;;;;;;5061629;28;20208;-64
2021/01/20 13:08:06;;;;;;;4.83;2.80;;;9.80;99.90;;;;;;5067871;28;20254;-64
2021/01/20 13:10:33;;;;;;;3.37;2.70;;;9.90;99.90;;;;;;5060630;28;20240;-64
2021/01/20 13:13:04;;;;;;;2.93;2.57;;;10.00;99.90;;;;;;5064448;28;20244;-64
2021/01/20 13:15:36;;;;;;;2.60;2.40;;;10.00;99.90;;;;;;5065982;28;20616;-65
2021/01/20 13:18:10;;;;;;;3.20;2.87;;;10.00;99.90;;;;;;5060985;28;20632;-65
2021/01/20 13:20:37;;;;;;;2.93;2.60;;;10.00;99.90;;;;;;5061623;28;20296;-67
2021/01/20 13:23:04;;;;;;;3.13;2.80;;;10.00;99.90;;;;;;5065703;28;20694;-64
2021/01/20 13:25:32;;;;;;;3.63;2.50;;;9.90;99.90;;;;;;5069492;28;20237;-64
2021/01/20 13:28:00;;;;;;;2.23;2.13;;;9.90;99.90;;;;;;5050619;28;20209;-64
2021/01/20 13:30:28;;;;;;;7.23;2.67;;;9.90;99.90;;;;;;5043636;28;20362;-64
2021/01/20 13:32:56;;;;;;;4.53;2.57;;;9.90;99.90;;;;;;5043741;28;20213;-64
2021/01/20 13:35:24;;;;;;;3.13;2.87;;;10.00;99.90;;;;;;5061629;28;20610;-65